Time;durP1;ratioP1;P1;durP2;ratioP2;P2;SDS_P1;SDS_P2;PMS_P1;PMS_P2;Temp;Humidity;BMP_temperature;BMP_pressure;BME280_temperature;BME280_humidity;BME280_pressure;Samples;Min_cycle;Max_cycle;Signal;HPM_P1;HPM_P2
2022/01/28 00:00:09;;;;;;;6.00;4.32;;;5.80;47.90;;;;;;4962022;28;20035;-87
2022/01/28 00:05:04;;;;;;;6.55;3.58;;;5.70;47.90;;;;;;5007684;28;20042;-87
2022/01/28 00:07:30;;;;;;;4.75;3.70;;;5.70;47.90;;;;;;4994440;28;20037;-87
2022/01/28 00:09:56;;;;;;;6.07;3.80;;;5.70;47.90;;;;;;4979610;28;20038;-87
2022/01/28 00:12:24;;;;;;;5.43;3.83;;;5.70;47.90;;;;;;4963925;28;20042;-86
2022/01/28 00:15:06;;;;;;;6.38;4.13;;;5.70;47.90;;;;;;4965066;28;20041;-87
2022/01/28 00:20:50;;;;;;;7.03;3.80;;;5.70;48.10;;;;;;4963796;28;21425;-87
2022/01/28 00:36:47;;;;;;;6.45;4.00;;;5.60;48.30;;;;;;4979683;28;20030;-88
2022/01/28 00:39:14;;;;;;;4.78;3.40;;;5.60;48.20;;;;;;4978663;28;20037;-88
2022/01/28 00:41:40;;;;;;;4.32;3.50;;;5.60;48.20;;;;;;4979342;28;20034;-89
2022/01/28 00:44:06;;;;;;;5.13;3.67;;;5.60;48.30;;;;;;4978346;28;20116;-88
2022/01/28 00:46:32;;;;;;;5.20;3.65;;;5.60;48.20;;;;;;4963572;28;20058;-89
2022/01/28 00:48:58;;;;;;;6.30;3.50;;;5.60;48.20;;;;;;4979643;28;20062;-87
2022/01/28 00:51:24;;;;;;;5.53;3.78;;;5.60;48.20;;;;;;4973052;28;20096;-90
2022/01/28 00:53:50;;;;;;;5.30;3.25;;;5.60;48.20;;;;;;4996548;28;20035;-87
2022/01/28 00:56:16;;;;;;;5.07;3.20;;;5.60;48.20;;;;;;4983379;28;20041;-89
2022/01/28 00:58:42;;;;;;;4.18;2.95;;;5.60;48.10;;;;;;5014227;28;20010;-88
2022/01/28 01:01:08;;;;;;;4.93;3.22;;;5.60;48.10;;;;;;4984709;28;20029;-88
2022/01/28 01:03:34;;;;;;;6.20;3.47;;;5.70;48.10;;;;;;4978593;28;20034;-89
2022/01/28 01:06:00;;;;;;;5.18;3.30;;;5.70;48.10;;;;;;4964573;28;20137;-88
2022/01/28 01:08:26;;;;;;;5.78;3.10;;;5.70;47.90;;;;;;4964019;28;20038;-88
2022/01/28 01:10:54;;;;;;;4.75;2.97;;;5.70;47.90;;;;;;4979428;28;20049;-89
2022/01/28 01:13:20;;;;;;;4.43;3.30;;;5.70;47.90;;;;;;4979337;28;20069;-88
2022/01/28 01:15:50;;;;;;;4.57;3.55;;;5.70;47.80;;;;;;4995483;28;20508;-88
2022/01/28 01:18:22;;;;;;;5.15;3.40;;;5.80;47.80;;;;;;4994767;28;20053;-89
2022/01/28 01:23:23;;;;;;;5.15;3.28;;;5.80;47.60;;;;;;4993861;28;20083;-88
2022/01/28 01:25:54;;;;;;;3.75;3.00;;;5.80;47.70;;;;;;4990367;28;20404;-88
2022/01/28 01:28:23;;;;;;;4.53;3.10;;;5.80;47.70;;;;;;4977590;28;20493;-88
2022/01/28 01:30:49;;;;;;;4.53;3.08;;;5.80;47.70;;;;;;4963070;28;20033;-89
2022/01/28 01:33:17;;;;;;;3.85;3.00;;;5.70;47.60;;;;;;4978940;28;20484;-89
2022/01/28 01:35:43;;;;;;;4.28;3.08;;;5.80;47.70;;;;;;4946847;28;20038;-88
2022/01/28 01:38:10;;;;;;;5.68;3.45;;;5.70;47.60;;;;;;4994780;28;20303;-87
2022/01/28 01:40:53;;;;;;;5.75;3.53;;;5.70;47.60;;;;;;4955536;28;20029;-88
2022/01/28 01:43:34;;;;;;;4.68;3.47;;;5.70;47.60;;;;;;4995051;28;20038;-86
2022/01/28 01:53:59;;;;;;;5.15;3.00;;;5.70;47.60;;;;;;4994591;28;20038;-87
2022/01/28 01:56:27;;;;;;;5.07;3.30;;;5.70;47.70;;;;;;4961582;28;20447;-86
2022/01/28 01:58:53;;;;;;;7.43;4.00;;;5.70;47.70;;;;;;4997107;28;20057;-87
2022/01/28 02:01:19;;;;;;;4.80;3.53;;;5.70;47.70;;;;;;5029905;28;20043;-87
2022/01/28 02:03:45;;;;;;;7.25;4.32;;;5.70;47.80;;;;;;5000997;28;20042;-87
2022/01/28 02:06:11;;;;;;;6.40;3.97;;;5.70;47.80;;;;;;4974255;28;20066;-89
2022/01/28 02:08:37;;;;;;;5.13;3.58;;;5.60;47.80;;;;;;4964791;28;20092;-88
2022/01/28 02:11:04;;;;;;;5.10;3.35;;;5.60;47.80;;;;;;4990757;28;20158;-88
2022/01/28 02:13:35;;;;;;;6.45;3.70;;;5.60;47.80;;;;;;4970194;28;20605;-87
2022/01/28 02:16:01;;;;;;;5.95;3.60;;;5.60;47.80;;;;;;4966869;28;20062;-87
2022/01/28 02:18:27;;;;;;;7.65;3.70;;;5.60;47.70;;;;;;4955940;28;20042;-88
2022/01/28 02:20:58;;;;;;;6.03;3.80;;;5.60;47.80;;;;;;4985471;28;20038;-86
2022/01/28 02:23:24;;;;;;;5.72;3.47;;;5.70;47.80;;;;;;4956394;28;20035;-87
2022/01/28 02:25:51;;;;;;;6.28;3.63;;;5.60;47.70;;;;;;4973098;28;20122;-88
2022/01/28 02:28:20;;;;;;;5.55;3.60;;;5.70;47.60;;;;;;4972716;28;20026;-89
2022/01/28 02:30:46;;;;;;;5.38;3.95;;;5.70;47.70;;;;;;4971226;28;20172;-88
2022/01/28 02:33:16;;;;;;;8.07;4.30;;;5.70;47.60;;;;;;4956817;28;20117;-89
2022/01/28 02:35:43;;;;;;;6.78;3.55;;;5.80;47.60;;;;;;4970931;28;20035;-88
2022/01/28 02:38:11;;;;;;;6.00;3.58;;;5.80;47.50;;;;;;4971752;28;20030;-88
2022/01/28 02:40:40;;;;;;;4.60;3.28;;;5.80;47.40;;;;;;4988269;28;20121;-89
2022/01/28 02:45:42;;;;;;;6.50;3.92;;;5.80;47.40;;;;;;4966409;28;20505;-88
2022/01/28 02:48:16;;;;;;;4.18;3.40;;;5.80;47.30;;;;;;4969047;28;20062;-88
2022/01/28 02:51:08;;;;;;;6.13;3.90;;;5.80;47.30;;;;;;4983316;28;20034;-87
2022/01/28 02:53:37;;;;;;;;;;;5.80;47.20;;;;;;4968281;28;20035;-89
2022/01/28 02:56:12;;;;;;;6.43;3.95;;;5.80;47.20;;;;;;4983584;28;19914;-90
2022/01/28 02:58:38;;;;;;;6.97;3.95;;;5.90;47.10;;;;;;4968824;28;20042;-87
2022/01/28 03:01:05;;;;;;;7.57;4.10;;;5.80;47.10;;;;;;4952996;28;20066;-90
2022/01/28 03:03:31;;;;;;;5.18;3.95;;;5.80;47.10;;;;;;4963968;28;20035;-88
2022/01/28 03:05:57;;;;;;;5.18;4.05;;;5.80;47.20;;;;;;4984856;28;20035;-89
2022/01/28 03:08:27;;;;;;;5.13;4.03;;;5.80;47.20;;;;;;4988141;28;20026;-88
2022/01/28 03:13:45;;;;;;;5.88;4.28;;;5.80;47.10;;;;;;4973226;28;20038;-92
2022/01/28 03:16:14;;;;;;;5.55;3.75;;;5.80;47.20;;;;;;4956130;28;20113;-91
2022/01/28 03:18:48;;;;;;;6.90;4.38;;;5.80;47.20;;;;;;4982438;28;20093;-88
2022/01/28 03:21:38;;;;;;;7.13;4.10;;;5.80;47.10;;;;;;4983967;28;20038;-88
2022/01/28 03:24:06;;;;;;;6.30;4.30;;;5.80;47.10;;;;;;4983744;28;20398;-88
2022/01/28 03:26:32;;;;;;;8.27;4.88;;;5.70;47.10;;;;;;4984049;28;20031;-89
2022/01/28 03:28:58;;;;;;;6.05;4.30;;;5.80;47.20;;;;;;4967482;28;20105;-89
2022/01/28 03:31:24;;;;;;;6.55;4.00;;;5.80;47.10;;;;;;4979717;28;20125;-90
2022/01/28 03:33:50;;;;;;;6.32;4.30;;;5.70;47.10;;;;;;4968539;28;20042;-92
2022/01/28 03:36:16;;;;;;;6.38;4.72;;;5.70;47.10;;;;;;4968411;28;20037;-87
2022/01/28 03:38:43;;;;;;;7.05;4.50;;;5.70;47.20;;;;;;4981067;28;20671;-85
2022/01/28 03:41:16;;;;;;;6.25;4.43;;;5.70;47.20;;;;;;4965666;28;20062;-85
2022/01/28 03:43:47;;;;;;;6.80;4.43;;;5.80;47.20;;;;;;4966797;28;20035;-87
2022/01/28 03:46:14;;;;;;;7.00;4.50;;;5.80;47.20;;;;;;4965388;28;20027;-87
2022/01/28 03:48:41;;;;;;;6.90;4.40;;;5.80;47.20;;;;;;4982088;28;20035;-86
2022/01/28 03:51:08;;;;;;;5.80;4.30;;;5.80;47.10;;;;;;4984129;28;20031;-89
2022/01/28 03:53:34;;;;;;;9.38;4.45;;;5.90;47.30;;;;;;4980677;28;20101;-87
2022/01/28 03:56:00;;;;;;;7.70;4.45;;;5.90;47.30;;;;;;4966951;28;20645;-86
2022/01/28 03:58:26;;;;;;;7.15;4.93;;;5.90;47.20;;;;;;4966469;28;20049;-86
2022/01/28 04:00:54;;;;;;;6.15;4.50;;;5.90;47.10;;;;;;4950964;28;20035;-85
2022/01/28 04:11:26;;;;;;;6.30;4.25;;;5.90;47.00;;;;;;4964996;28;20395;-83
2022/01/28 04:11:34;;;;;;;8.85;4.82;;;5.90;47.10;;;;;;4978605;28;20564;-82
2022/01/28 04:14:17;;;;;;;8.48;5.65;;;5.90;47.20;;;;;;4997090;28;20044;-84
2022/01/28 04:19:27;;;;;;;9.05;5.57;;;5.90;47.20;;;;;;4992972;28;20125;-82
2022/01/28 04:21:53;;;;;;;8.75;5.47;;;5.80;47.20;;;;;;4985766;28;20038;-82
2022/01/28 04:24:19;;;;;;;6.38;4.53;;;5.80;47.20;;;;;;4976953;28;20085;-83
2022/01/28 04:26:45;;;;;;;6.97;5.15;;;5.90;47.20;;;;;;4996380;28;20025;-82
2022/01/28 04:29:13;;;;;;;8.63;5.38;;;5.90;47.10;;;;;;4989702;28;20042;-81
2022/01/28 04:31:42;;;;;;;7.57;4.90;;;5.90;47.20;;;;;;4980501;28;20276;-81
2022/01/28 04:34:10;;;;;;;9.05;5.40;;;5.80;47.10;;;;;;4996667;28;20030;-82
2022/01/28 04:36:44;;;;;;;7.00;5.13;;;5.80;47.10;;;;;;4976430;28;20036;-81
2022/01/28 04:39:19;;;;;;;6.65;4.90;;;5.80;47.20;;;;;;4994587;28;20505;-81
2022/01/28 04:44:27;;;;;;;8.57;5.05;;;5.80;47.30;;;;;;4996541;28;20036;-82
2022/01/28 04:47:09;;;;;;;8.52;5.72;;;5.80;47.30;;;;;;4962589;28;20030;-86
2022/01/28 04:50:27;;;;;;;8.02;5.30;;;5.90;47.40;;;;;;4964035;28;20061;-86
2022/01/28 04:55:07;;;;;;;8.27;5.18;;;5.90;47.50;;;;;;4965649;28;20036;-85
2022/01/28 05:03:38;;;;;;;7.47;5.17;;;6.00;47.30;;;;;;4995023;28;20052;-82
2022/01/28 05:26:59;;;;;;;7.47;5.32;;;6.00;47.10;;;;;;4974967;28;20036;-81
2022/01/28 05:29:25;;;;;;;7.57;5.47;;;6.00;47.10;;;;;;4970288;28;20133;-81
2022/01/28 05:31:51;;;;;;;7.70;4.70;;;6.00;47.20;;;;;;4979340;28;20033;-81
2022/01/28 05:34:17;;;;;;;8.40;5.38;;;6.00;47.10;;;;;;4994868;28;20038;-80
2022/01/28 05:36:44;;;;;;;9.43;6.00;;;6.00;48.20;;;;;;4984788;28;20181;-81
2022/01/28 05:39:10;;;;;;;9.18;5.82;;;6.10;50.90;;;;;;4976501;28;20034;-81
2022/01/28 05:41:36;;;;;;;11.73;5.65;;;6.10;53.50;;;;;;4986087;28;20128;-80
2022/01/28 05:44:02;;;;;;;10.32;5.57;;;6.20;55.90;;;;;;4977663;28;20925;-80
2022/01/28 05:46:29;;;;;;;12.35;5.63;;;6.20;57.00;;;;;;4976177;28;20038;-79
2022/01/28 05:48:56;;;;;;;11.98;6.07;;;6.30;57.60;;;;;;4997065;28;20045;-81
2022/01/28 05:51:23;;;;;;;10.68;5.05;;;6.30;57.90;;;;;;4997682;28;20030;-81
2022/01/28 05:53:49;;;;;;;9.82;5.18;;;6.40;58.20;;;;;;4980243;28;20422;-81
2022/01/28 05:56:15;;;;;;;9.60;5.45;;;6.40;58.50;;;;;;4997280;28;20113;-81
2022/01/28 05:58:41;;;;;;;10.80;5.32;;;6.40;58.40;;;;;;4982203;28;20501;-80
2022/01/28 06:01:07;;;;;;;8.98;5.25;;;6.50;58.60;;;;;;4980023;28;20030;-81
2022/01/28 06:03:33;;;;;;;9.10;4.90;;;6.50;58.40;;;;;;4997996;28;20031;-81
2022/01/28 06:05:58;;;;;;;9.27;4.63;;;6.50;58.60;;;;;;4980886;28;20045;-81
2022/01/28 06:08:24;;;;;;;9.00;5.13;;;6.60;58.50;;;;;;4979620;28;20037;-80
2022/01/28 06:10:50;;;;;;;7.40;4.75;;;6.60;58.30;;;;;;4993166;28;20069;-80
2022/01/28 06:13:17;;;;;;;6.18;4.53;;;6.60;58.10;;;;;;4993274;28;20041;-81
2022/01/28 06:15:43;;;;;;;9.10;4.35;;;6.60;58.10;;;;;;4989668;28;20170;-80
2022/01/28 06:18:10;;;;;;;9.00;4.97;;;6.70;57.90;;;;;;4980538;28;20164;-80
2022/01/28 06:20:36;;;;;;;8.25;4.85;;;6.70;57.80;;;;;;4989822;28;20038;-81
2022/01/28 06:23:03;;;;;;;9.05;5.18;;;6.70;57.50;;;;;;4988880;28;20623;-81
2022/01/28 06:25:29;;;;;;;7.63;4.72;;;6.80;57.40;;;;;;4990210;28;20034;-82
2022/01/28 06:27:55;;;;;;;7.57;4.45;;;6.80;57.40;;;;;;4989441;28;20034;-79
2022/01/28 06:30:22;;;;;;;8.77;5.00;;;6.80;57.30;;;;;;4989181;28;20417;-80
2022/01/28 06:32:49;;;;;;;7.82;4.63;;;6.80;57.00;;;;;;4979309;28;20432;-79
2022/01/28 06:35:15;;;;;;;8.95;4.88;;;6.80;57.20;;;;;;4994201;28;20026;-80
2022/01/28 06:37:43;;;;;;;8.18;5.10;;;6.80;57.30;;;;;;4978434;28;20049;-80
2022/01/28 06:40:12;;;;;;;9.38;4.90;;;6.90;57.40;;;;;;4993815;28;20437;-79
2022/01/28 06:42:39;;;;;;;8.00;4.90;;;6.90;57.30;;;;;;4976880;28;20067;-79
2022/01/28 06:45:06;;;;;;;8.90;4.70;;;6.90;57.40;;;;;;4976631;28;20038;-80
2022/01/28 06:47:35;;;;;;;6.68;4.65;;;6.90;57.20;;;;;;4978213;28;20088;-80
2022/01/28 06:50:04;;;;;;;8.60;4.70;;;6.90;57.50;;;;;;4988519;28;20421;-80
2022/01/28 06:52:31;;;;;;;7.20;4.60;;;6.90;57.40;;;;;;4994088;28;20061;-80
2022/01/28 06:54:57;;;;;;;9.43;5.38;;;6.90;57.30;;;;;;4992893;28;20042;-80
2022/01/28 06:57:23;;;;;;;7.68;4.22;;;6.90;57.50;;;;;;4993434;28;20058;-80
2022/01/28 06:59:49;;;;;;;7.45;4.85;;;7.00;57.50;;;;;;4987171;28;20513;-80
2022/01/28 07:02:15;;;;;;;8.20;5.13;;;7.00;57.50;;;;;;4976442;28;20046;-80
2022/01/28 07:04:41;;;;;;;7.93;4.75;;;7.00;57.60;;;;;;4993625;28;20038;-80
2022/01/28 07:07:07;;;;;;;8.82;4.97;;;7.00;57.40;;;;;;4991872;28;20062;-79
2022/01/28 07:09:35;;;;;;;8.27;4.53;;;7.00;57.40;;;;;;4993526;28;20081;-79
2022/01/28 07:12:02;;;;;;;9.70;5.07;;;7.00;57.30;;;;;;4993345;28;20480;-80
2022/01/28 07:14:28;;;;;;;9.90;4.80;;;7.10;57.40;;;;;;4984012;28;20030;-79
2022/01/28 07:16:54;;;;;;;6.85;4.38;;;7.10;57.40;;;;;;4984689;28;20053;-78
2022/01/28 07:19:20;;;;;;;7.95;4.75;;;7.10;57.40;;;;;;5006241;28;20038;-79
2022/01/28 07:21:46;;;;;;;7.25;5.03;;;7.10;57.40;;;;;;5005828;28;20061;-80
2022/01/28 07:24:12;;;;;;;7.75;5.20;;;7.10;57.30;;;;;;4992106;28;20402;-79
2022/01/28 07:26:38;;;;;;;9.10;5.07;;;7.20;57.30;;;;;;4988192;28;20037;-80
2022/01/28 07:29:04;;;;;;;7.13;4.88;;;7.20;57.20;;;;;;4988006;28;20027;-78
2022/01/28 07:31:30;;;;;;;8.27;4.80;;;7.20;57.30;;;;;;4986256;28;20052;-79
2022/01/28 07:33:57;;;;;;;7.90;5.05;;;7.20;57.10;;;;;;4974788;28;20116;-77
2022/01/28 07:36:23;;;;;;;7.22;4.88;;;7.20;57.20;;;;;;4986271;28;20085;-78
2022/01/28 07:38:49;;;;;;;8.98;5.50;;;7.20;57.10;;;;;;4986385;28;20453;-83
2022/01/28 07:41:14;;;;;;;7.90;4.90;;;7.20;57.70;;;;;;4985390;28;20058;-84
2022/01/28 07:43:42;;;;;;;8.52;4.68;;;7.20;57.10;;;;;;4985234;28;20589;-84
2022/01/28 07:46:08;;;;;;;7.20;4.80;;;7.30;57.20;;;;;;4993191;28;20064;-84
2022/01/28 07:48:34;;;;;;;6.43;4.88;;;7.30;57.20;;;;;;4991777;28;20065;-84
2022/01/28 07:51:00;;;;;;;9.90;5.10;;;7.30;57.40;;;;;;4991360;28;20060;-84
2022/01/28 07:53:26;;;;;;;8.20;4.68;;;7.30;57.40;;;;;;5001917;28;20034;-84
2022/01/28 07:55:52;;;;;;;8.13;4.90;;;7.30;57.50;;;;;;4981073;28;20121;-83
2022/01/28 07:58:18;;;;;;;7.90;4.85;;;7.30;57.60;;;;;;4975644;28;20584;-84
2022/01/28 08:00:44;;;;;;;9.13;4.55;;;7.40;57.70;;;;;;4957909;28;20034;-81
2022/01/28 08:03:10;;;;;;;10.13;5.25;;;7.40;57.60;;;;;;4990617;28;20379;-81
2022/01/28 08:05:36;;;;;;;8.63;4.95;;;7.40;57.60;;;;;;4973361;28;20038;-81
2022/01/28 08:08:07;;;;;;;7.65;4.35;;;7.40;57.60;;;;;;4975652;28;20050;-81
2022/01/28 08:10:33;;;;;;;8.60;4.45;;;7.40;57.50;;;;;;4985009;28;20046;-82
2022/01/28 08:13:03;;;;;;;8.07;5.00;;;7.40;57.50;;;;;;4985605;28;20121;-82
2022/01/28 08:15:30;;;;;;;6.15;4.32;;;7.40;57.50;;;;;;4993293;28;20030;-81
2022/01/28 08:17:56;;;;;;;7.38;4.80;;;7.40;57.60;;;;;;4986321;28;20509;-82
2022/01/28 08:20:22;;;;;;;7.78;5.20;;;7.50;57.70;;;;;;4985087;28;20113;-82
2022/01/28 08:22:49;;;;;;;8.65;4.78;;;7.50;57.50;;;;;;4985425;28;20043;-81
2022/01/28 08:25:17;;;;;;;9.13;5.68;;;7.50;57.60;;;;;;4984425;28;20041;-81
2022/01/28 08:27:44;;;;;;;7.07;5.25;;;7.50;57.70;;;;;;4985747;28;20383;-82
2022/01/28 08:30:12;;;;;;;9.07;5.18;;;7.50;57.70;;;;;;4992329;28;20039;-81
2022/01/28 08:32:38;;;;;;;9.02;5.43;;;7.50;57.70;;;;;;4984182;28;20034;-82
2022/01/28 08:35:04;;;;;;;7.05;4.88;;;7.60;57.70;;;;;;4986202;28;20026;-82
2022/01/28 08:37:31;;;;;;;9.23;5.57;;;7.50;57.70;;;;;;4985364;28;20505;-82
2022/01/28 08:39:57;;;;;;;10.27;5.18;;;7.60;57.80;;;;;;4986226;28;20034;-80
2022/01/28 08:42:23;;;;;;;8.38;5.30;;;7.60;57.80;;;;;;4984804;28;20131;-82
2022/01/28 08:44:49;;;;;;;9.68;5.10;;;7.60;57.80;;;;;;4984932;28;20027;-80
2022/01/28 08:47:15;;;;;;;7.45;5.20;;;7.60;57.80;;;;;;4984700;28;20030;-85
2022/01/28 08:49:41;;;;;;;8.70;5.78;;;7.70;57.80;;;;;;4985821;28;20480;-84
2022/01/28 08:52:07;;;;;;;8.23;5.47;;;7.70;57.80;;;;;;4961622;28;20520;-83
2022/01/28 08:54:33;;;;;;;8.05;5.20;;;7.70;57.70;;;;;;4974329;28;20038;-83
2022/01/28 08:56:58;;;;;;;9.40;5.78;;;7.80;57.80;;;;;;4988506;28;20125;-83
2022/01/28 08:59:24;;;;;;;8.30;6.05;;;7.70;57.70;;;;;;4990525;28;20128;-83
2022/01/28 09:01:50;;;;;;;11.15;5.85;;;7.80;57.80;;;;;;4974498;28;20449;-82
2022/01/28 09:04:16;;;;;;;10.10;5.70;;;7.80;57.80;;;;;;4991686;28;20074;-83
2022/01/28 09:06:42;;;;;;;8.45;5.95;;;7.80;57.90;;;;;;4974773;28;20116;-83
2022/01/28 09:09:08;;;;;;;8.57;5.63;;;7.80;57.80;;;;;;4991831;28;20132;-83
2022/01/28 09:11:47;;;;;;;13.02;5.68;;;7.80;57.90;;;;;;4974518;28;20410;-83
2022/01/28 09:14:14;;;;;;;8.57;5.85;;;7.80;57.80;;;;;;4960357;28;20037;-84
2022/01/28 09:16:41;;;;;;;9.38;5.03;;;7.90;57.80;;;;;;4993644;28;20041;-83
2022/01/28 09:19:07;;;;;;;8.63;5.80;;;7.80;57.70;;;;;;4986863;28;20038;-83
2022/01/28 09:21:33;;;;;;;9.40;5.35;;;7.80;57.60;;;;;;4987023;28;20038;-84
2022/01/28 09:24:00;;;;;;;11.43;6.00;;;7.90;57.70;;;;;;4986955;28;20030;-83
2022/01/28 09:26:26;;;;;;;9.93;5.97;;;7.90;57.70;;;;;;4988185;28;20080;-83
2022/01/28 09:28:52;;;;;;;10.82;6.28;;;7.90;57.70;;;;;;4987070;28;20119;-83
2022/01/28 09:31:17;;;;;;;9.70;5.90;;;7.90;57.70;;;;;;4986616;28;20034;-83
2022/01/28 09:33:43;;;;;;;10.50;6.15;;;7.90;57.80;;;;;;4986935;28;20026;-82
2022/01/28 09:36:09;;;;;;;11.30;6.28;;;7.90;57.80;;;;;;4986877;28;20437;-83
2022/01/28 09:38:35;;;;;;;10.95;5.68;;;7.90;57.70;;;;;;4977615;28;20062;-83
2022/01/28 09:41:03;;;;;;;10.18;6.38;;;7.90;58.40;;;;;;4989987;28;20453;-82
2022/01/28 09:43:30;;;;;;;9.52;6.57;;;7.90;57.80;;;;;;4990285;28;20040;-83
2022/01/28 09:45:56;;;;;;;9.57;6.13;;;8.00;57.80;;;;;;4979924;28;20038;-83
2022/01/28 09:48:23;;;;;;;9.13;6.15;;;8.00;57.80;;;;;;4986835;28;20034;-83
2022/01/28 09:50:50;;;;;;;11.50;7.30;;;8.00;57.80;;;;;;4986955;28;20042;-83
2022/01/28 09:53:20;;;;;;;11.60;6.22;;;8.00;57.80;;;;;;4992429;28;20370;-83
2022/01/28 09:55:47;;;;;;;10.05;6.40;;;8.00;57.80;;;;;;4985538;28;20043;-84
2022/01/28 09:58:15;;;;;;;10.00;6.15;;;8.00;57.70;;;;;;4992052;28;20042;-84
2022/01/28 10:00:41;;;;;;;8.90;6.25;;;8.00;57.80;;;;;;4991025;28;20061;-84
2022/01/28 10:03:10;;;;;;;11.57;6.60;;;8.00;57.80;;;;;;4958722;28;20489;-83
2022/01/28 10:05:38;;;;;;;10.38;7.15;;;8.10;57.90;;;;;;4990754;28;20084;-84
2022/01/28 10:08:18;;;;;;;11.75;6.55;;;8.10;57.90;;;;;;4979423;28;20049;-84
2022/01/28 10:10:46;;;;;;;11.32;7.22;;;8.10;57.90;;;;;;4969826;28;20058;-84
2022/01/28 10:13:18;;;;;;;12.48;6.65;;;8.10;57.80;;;;;;4952596;28;20540;-84
2022/01/28 10:16:01;;;;;;;12.07;6.85;;;8.10;57.80;;;;;;4963475;28;20122;-83
2022/01/28 10:18:42;;;;;;;11.48;6.93;;;8.10;57.80;;;;;;4964226;28;20523;-84
2022/01/28 10:21:40;;;;;;;11.13;6.93;;;8.10;57.80;;;;;;4963653;28;20049;-83
2022/01/28 10:24:14;;;;;;;10.07;6.85;;;8.10;57.70;;;;;;4962552;28;20506;-83
2022/01/28 10:26:45;;;;;;;12.30;7.85;;;8.10;57.80;;;;;;4970061;28;20137;-82
2022/01/28 10:29:17;;;;;;;10.05;6.75;;;8.10;57.70;;;;;;4985875;28;20166;-83
2022/01/28 10:31:52;;;;;;;13.38;7.85;;;8.20;57.80;;;;;;4971937;28;20039;-83
2022/01/28 10:34:27;;;;;;;11.27;7.05;;;8.20;57.70;;;;;;4972953;28;20038;-82
2022/01/28 10:37:19;;;;;;;12.32;7.28;;;8.20;57.70;;;;;;4975268;28;20573;-83
2022/01/28 10:39:47;;;;;;;13.48;8.43;;;8.20;57.60;;;;;;4981434;28;20043;-83
2022/01/28 10:42:34;;;;;;;14.43;8.40;;;8.20;57.60;;;;;;4974912;28;20474;-83
2022/01/28 10:45:10;;;;;;;11.20;6.70;;;8.20;57.50;;;;;;4973525;28;20406;-83
2022/01/28 10:47:37;;;;;;;14.27;8.10;;;8.20;57.50;;;;;;4978708;28;20059;-83
2022/01/28 10:50:24;;;;;;;12.02;7.60;;;8.20;57.40;;;;;;4976491;28;20023;-83
2022/01/28 10:53:21;;;;;;;11.40;7.40;;;8.20;57.40;;;;;;4974969;28;20055;-83
2022/01/28 10:55:54;;;;;;;11.70;7.50;;;8.20;57.50;;;;;;4962822;28;20141;-83
2022/01/28 10:58:23;;;;;;;10.80;7.20;;;8.20;57.40;;;;;;4973040;28;20037;-81
2022/01/28 11:00:53;;;;;;;10.90;7.60;;;8.20;57.40;;;;;;4967800;28;20112;-83
2022/01/28 11:03:26;;;;;;;12.18;7.32;;;8.20;57.40;;;;;;4964327;28;20612;-83
2022/01/28 11:05:56;;;;;;;11.60;7.03;;;8.20;57.30;;;;;;4967095;28;20034;-83
2022/01/28 11:08:25;;;;;;;13.38;8.05;;;8.20;57.40;;;;;;4967516;28;20494;-84
2022/01/28 11:10:52;;;;;;;12.27;7.53;;;8.20;57.40;;;;;;4973534;28;20054;-85
2022/01/28 11:13:18;;;;;;;13.43;7.30;;;8.20;57.40;;;;;;4987354;28;20104;-83
2022/01/28 11:15:45;;;;;;;10.55;6.90;;;8.30;57.40;;;;;;4993098;28;20125;-83
2022/01/28 11:18:12;;;;;;;13.80;8.10;;;8.30;57.50;;;;;;4987106;28;20034;-83
2022/01/28 11:20:55;;;;;;;13.77;8.35;;;8.30;57.50;;;;;;4986254;28;20536;-83
2022/01/28 11:23:52;;;;;;;13.20;7.78;;;8.30;57.50;;;;;;4986330;28;20279;-83
2022/01/28 11:26:18;;;;;;;;;;;8.30;57.50;;;;;;4970444;28;20038;-81
2022/01/28 11:28:55;;;;;;;13.80;8.23;;;8.30;57.50;;;;;;4986016;28;20084;-82
2022/01/28 11:31:45;;;;;;;13.95;7.88;;;8.30;57.50;;;;;;4994426;28;20030;-83
2022/01/28 11:34:17;;;;;;;15.93;8.80;;;8.30;57.50;;;;;;4986470;28;20446;-83
2022/01/28 11:36:44;;;;;;;11.73;7.65;;;8.30;57.50;;;;;;4977867;28;20642;-82
2022/01/28 11:39:42;;;;;;;13.20;7.72;;;8.30;57.50;;;;;;4985972;28;20036;-80
2022/01/28 11:42:10;;;;;;;14.45;8.32;;;8.30;57.50;;;;;;4970696;28;20045;-79
2022/01/28 11:44:49;;;;;;;15.00;8.57;;;8.30;57.50;;;;;;4985815;28;20088;-79
2022/01/28 11:47:39;;;;;;;12.15;7.55;;;8.30;57.50;;;;;;4985298;28;20078;-80
2022/01/28 11:50:17;;;;;;;14.07;7.90;;;8.30;57.60;;;;;;4985650;28;20532;-80
2022/01/28 11:52:44;;;;;;;12.85;7.80;;;8.30;57.70;;;;;;4984626;28;20029;-81
2022/01/28 11:55:25;;;;;;;13.70;8.52;;;8.30;57.70;;;;;;4987528;28;20535;-80
2022/01/28 11:57:55;;;;;;;13.75;8.45;;;8.40;57.70;;;;;;4984713;28;20494;-80
2022/01/28 12:00:27;;;;;;;13.60;7.97;;;8.40;57.80;;;;;;4984928;28;20042;-79
2022/01/28 12:02:54;;;;;;;14.75;8.57;;;8.40;57.70;;;;;;4985286;28;20421;-79
2022/01/28 12:05:29;;;;;;;14.68;8.80;;;8.40;57.60;;;;;;4984822;28;20042;-79
2022/01/28 12:08:05;;;;;;;12.40;7.90;;;8.40;57.50;;;;;;4985109;28;20387;-81
2022/01/28 12:10:36;;;;;;;14.80;9.38;;;8.40;57.50;;;;;;4992035;28;20466;-81
2022/01/28 12:13:05;;;;;;;15.40;8.27;;;8.40;57.50;;;;;;4984492;28;20141;-81
2022/01/28 12:15:58;;;;;;;14.18;8.38;;;8.30;57.40;;;;;;4986062;28;20084;-81
2022/01/28 12:18:24;;;;;;;12.50;8.18;;;8.40;57.30;;;;;;4985040;28;20049;-81
2022/01/28 12:20:50;;;;;;;14.02;9.13;;;8.40;57.30;;;;;;4986067;28;20048;-81
2022/01/28 12:23:19;;;;;;;14.50;8.45;;;8.40;57.30;;;;;;4984562;28;20038;-80
2022/01/28 12:25:46;;;;;;;15.13;8.75;;;8.40;57.30;;;;;;4985505;28;20026;-81
2022/01/28 12:28:40;;;;;;;15.05;8.68;;;8.40;57.30;;;;;;4984922;28;20273;-81
2022/01/28 12:31:14;;;;;;;13.80;8.60;;;8.40;57.30;;;;;;4985369;28;20030;-82
2022/01/28 12:33:43;;;;;;;14.35;8.75;;;8.40;57.40;;;;;;4984547;28;20100;-82
2022/01/28 12:36:15;;;;;;;15.90;9.18;;;8.40;57.30;;;;;;4984553;28;20031;-79
2022/01/28 12:39:44;;;;;;;14.02;8.98;;;8.40;57.30;;;;;;4984528;28;20555;-81
2022/01/28 12:42:04;;;;;;;14.88;8.70;;;8.40;57.30;;;;;;4980269;28;20138;-81
2022/01/28 12:44:35;;;;;;;14.70;9.00;;;8.40;57.20;;;;;;4984181;28;20117;-81
2022/01/28 12:47:11;;;;;;;16.70;9.52;;;8.40;57.20;;;;;;4984369;28;20033;-81
2022/01/28 12:49:41;;;;;;;13.88;8.75;;;8.40;57.20;;;;;;4984902;28;20041;-81
2022/01/28 12:52:08;;;;;;;15.80;9.80;;;8.40;57.20;;;;;;4984034;28;20018;-81
2022/01/28 12:54:36;;;;;;;16.60;9.30;;;8.40;57.20;;;;;;4985215;28;20501;-79
2022/01/28 12:57:03;;;;;;;14.93;9.15;;;8.40;57.10;;;;;;4990032;28;20054;-82
2022/01/28 12:59:29;;;;;;;16.30;9.95;;;8.40;57.10;;;;;;4974653;28;20045;-82
2022/01/28 13:01:57;;;;;;;15.13;9.75;;;8.40;57.10;;;;;;4985030;28;20054;-80
2022/01/28 13:04:35;;;;;;;16.70;9.77;;;8.40;57.00;;;;;;4984421;28;20054;-81
2022/01/28 13:08:24;;;;;;;15.90;9.90;;;8.40;56.90;;;;;;4984109;28;20037;-81
2022/01/28 13:09:50;;;;;;;16.85;10.30;;;8.40;56.80;;;;;;4984690;28;20091;-80
2022/01/28 13:12:30;;;;;;;18.13;10.40;;;8.40;56.60;;;;;;4992149;28;20025;-82
2022/01/28 13:15:08;;;;;;;19.98;10.90;;;8.40;56.60;;;;;;4986395;28;20034;-80
2022/01/28 13:17:35;;;;;;;16.02;9.73;;;8.40;56.50;;;;;;4985256;28;20038;-80
2022/01/28 13:20:05;;;;;;;19.92;9.20;;;8.40;56.60;;;;;;4983053;28;20034;-80
2022/01/28 13:22:32;;;;;;;16.60;10.00;;;8.40;56.50;;;;;;4983341;28;20053;-80
2022/01/28 13:24:59;;;;;;;17.80;10.30;;;8.40;56.40;;;;;;4984360;28;20065;-79
2022/01/28 13:27:40;;;;;;;15.18;9.50;;;8.40;56.30;;;;;;4983480;28;20026;-80
2022/01/28 13:30:13;;;;;;;16.55;9.98;;;8.50;56.50;;;;;;4984435;28;20057;-80
2022/01/28 13:32:43;;;;;;;15.73;9.50;;;8.40;56.30;;;;;;4982930;28;20493;-81
2022/01/28 13:35:33;;;;;;;17.58;10.75;;;8.40;56.40;;;;;;4984797;28;20065;-80
2022/01/28 13:38:03;;;;;;;16.85;9.93;;;8.40;56.30;;;;;;4983249;28;20054;-80
2022/01/28 13:40:31;;;;;;;19.25;10.30;;;8.40;56.30;;;;;;4988142;28;20043;-80
2022/01/28 13:42:59;;;;;;;16.08;10.23;;;8.40;56.30;;;;;;4984404;28;20134;-82
2022/01/28 13:45:31;;;;;;;17.73;10.13;;;8.40;56.30;;;;;;4983897;28;20034;-85
2022/01/28 13:47:58;;;;;;;14.98;9.85;;;8.40;56.30;;;;;;4983794;28;20703;-80
2022/01/28 13:50:29;;;;;;;16.92;10.50;;;8.40;56.30;;;;;;4983515;28;20026;-80
2022/01/28 13:53:22;;;;;;;17.67;10.15;;;8.40;56.40;;;;;;4985157;28;20529;-81
2022/01/28 13:55:50;;;;;;;17.10;10.25;;;8.40;56.50;;;;;;4994183;28;20034;-80
2022/01/28 13:58:17;;;;;;;16.48;10.18;;;8.40;56.60;;;;;;4984844;28;20135;-80
2022/01/28 14:00:45;;;;;;;16.85;10.07;;;8.40;56.60;;;;;;4992342;28;20413;-81
2022/01/28 14:03:28;;;;;;;17.23;10.77;;;8.40;56.70;;;;;;5005070;28;20038;-81
2022/01/28 14:06:02;;;;;;;18.05;11.13;;;8.40;56.80;;;;;;4986642;28;20034;-82
2022/01/28 14:08:53;;;;;;;17.25;10.68;;;8.40;56.90;;;;;;4978164;28;20320;-81
2022/01/28 14:11:35;;;;;;;16.83;10.93;;;8.40;57.00;;;;;;4988216;28;20052;-81
2022/01/28 14:14:30;;;;;;;15.68;9.88;;;8.40;57.20;;;;;;4988005;28;20477;-81
2022/01/28 14:17:02;;;;;;;16.88;10.13;;;8.40;57.30;;;;;;4989023;28;21410;-81
2022/01/28 14:19:30;;;;;;;17.05;11.23;;;8.40;57.40;;;;;;4984974;28;20026;-79
2022/01/28 14:21:56;;;;;;;18.25;11.73;;;8.40;57.50;;;;;;4993979;28;20138;-81